Time;durP1;ratioP1;P1;durP2;ratioP2;P2;SDS_P1;SDS_P2;PMS_P1;PMS_P2;Temp;Humidity;BMP_temperature;BMP_pressure;BME280_temperature;BME280_humidity;BME280_pressure;Samples;Min_cycle;Max_cycle;Signal;HPM_P1;HPM_P2
2022/09/03 00:02:26;;;;;;;3.78;1.40;;;;;;;;;;5143357;27;20254;-68
2022/09/03 00:04:56;;;;;;;1.30;1.30;;;;;;;;;;5143409;27;20391;-68
2022/09/03 00:07:28;;;;;;;1.52;1.42;;;;;;;;;;5143210;27;20502;-68
2022/09/03 00:09:56;;;;;;;1.73;1.63;;;;;;;;;;5143151;27;20203;-68
2022/09/03 00:12:25;;;;;;;1.67;1.40;;;;;;;;;;5143297;27;20202;-68
2022/09/03 00:14:55;;;;;;;3.33;1.50;;;;;;;;;;5143550;27;20261;-68
2022/09/03 00:17:23;;;;;;;3.03;1.50;;;;;;;;;;5143479;27;20265;-68
2022/09/03 00:19:53;;;;;;;4.70;1.60;;;;;;;;;;5142954;27;20201;-68
2022/09/03 00:22:22;;;;;;;2.47;1.42;;;;;;;;;;5143230;27;20502;-68
2022/09/03 00:24:49;;;;;;;1.45;1.35;;;;;;;;;;5143094;27;20439;-68
2022/09/03 00:27:17;;;;;;;1.40;1.30;;;;;;;;;;5143011;27;20202;-68
2022/09/03 00:29:46;;;;;;;3.28;1.23;;;;;;;;;;5142901;27;20514;-68
2022/09/03 00:32:17;;;;;;;2.67;1.60;;;;;;;;;;5143156;27;20195;-68
2022/09/03 00:34:44;;;;;;;1.23;1.17;;;;;;;;;;5143214;27;20261;-68
2022/09/03 00:37:11;;;;;;;1.27;1.27;;;;;;;;;;5143066;27;20201;-68
2022/09/03 00:39:38;;;;;;;1.50;1.40;;;;;;;;;;5142731;27;20219;-68
2022/09/03 00:42:22;;;;;;;4.25;1.45;;;;;;;;;;5143232;27;20239;-68
2022/09/03 00:44:54;;;;;;;1.77;1.50;;;;;;;;;;5143052;27;20206;-68
2022/09/03 00:47:24;;;;;;;1.20;1.20;;;;;;;;;;5143003;27;20209;-68
2022/09/03 00:49:58;;;;;;;1.58;1.40;;;;;;;;;;5142799;27;20194;-68
2022/09/03 00:52:34;;;;;;;2.97;1.10;;;;;;;;;;5143221;27;20195;-68
2022/09/03 00:55:02;;;;;;;2.05;1.30;;;;;;;;;;5143066;27;20190;-68
2022/09/03 00:57:34;;;;;;;2.05;1.30;;;;;;;;;;5142957;27;20198;-68
2022/09/03 01:00:04;;;;;;;1.40;1.30;;;;;;;;;;5142779;27;20482;-68
2022/09/03 01:02:36;;;;;;;3.53;1.25;;;;;;;;;;5143233;27;20194;-68
2022/09/03 01:05:06;;;;;;;4.03;1.35;;;;;;;;;;5142535;27;20222;-68
2022/09/03 01:07:37;;;;;;;2.28;1.10;;;;;;;;;;5142761;27;20214;-68
2022/09/03 01:10:11;;;;;;;1.42;1.30;;;;;;;;;;5142451;27;20202;-68
2022/09/03 01:12:41;;;;;;;1.10;1.08;;;;;;;;;;5142769;27;20393;-69
2022/09/03 01:15:11;;;;;;;1.45;1.35;;;;;;;;;;5142684;27;20490;-68
2022/09/03 01:17:44;;;;;;;2.85;1.25;;;;;;;;;;5143135;27;20216;-68
2022/09/03 01:20:21;;;;;;;1.45;1.17;;;;;;;;;;5146283;27;20194;-68
2022/09/03 01:23:03;;;;;;;2.70;1.10;;;;;;;;;;5146362;27;20239;-68
2022/09/03 01:25:35;;;;;;;1.40;1.08;;;;;;;;;;5146116;27;20586;-68
2022/09/03 01:28:10;;;;;;;1.10;1.08;;;;;;;;;;5146196;27;20201;-68
2022/09/03 01:30:39;;;;;;;1.30;1.20;;;;;;;;;;5146176;27;20285;-68
2022/09/03 01:33:12;;;;;;;1.25;0.93;;;;;;;;;;5145395;27;20195;-68
2022/09/03 01:35:43;;;;;;;2.47;1.10;;;;;;;;;;5146328;27;20229;-68
2022/09/03 01:38:15;;;;;;;1.85;1.10;;;;;;;;;;5146243;27;20201;-68
2022/09/03 01:40:46;;;;;;;1.05;1.05;;;;;;;;;;5145921;27;20440;-68
2022/09/03 01:43:21;;;;;;;1.10;1.05;;;;;;;;;;5146133;27;20195;-68
2022/09/03 01:45:52;;;;;;;3.20;0.90;;;;;;;;;;5145909;27;20655;-68
2022/09/03 01:48:30;;;;;;;0.90;0.90;;;;;;;;;;5146004;27;20194;-68
2022/09/03 01:50:58;;;;;;;1.00;1.00;;;;;;;;;;5145789;27;20566;-68
2022/09/03 01:53:34;;;;;;;0.93;0.90;;;;;;;;;;5145911;27;20202;-68
2022/09/03 01:56:10;;;;;;;1.40;1.30;;;;;;;;;;5145717;27;20520;-68
2022/09/03 01:58:41;;;;;;;1.83;1.17;;;;;;;;;;5145909;27;20502;-68
2022/09/03 02:01:12;;;;;;;1.52;1.42;;;;;;;;;;5145631;27;20512;-68
2022/09/03 02:03:40;;;;;;;1.77;1.13;;;;;;;;;;5145732;27;20374;-68
2022/09/03 02:06:07;;;;;;;1.38;1.00;;;;;;;;;;5145485;27;20222;-68
2022/09/03 02:08:33;;;;;;;1.10;1.10;;;;;;;;;;5145376;27;20231;-68
2022/09/03 02:11:01;;;;;;;1.13;1.02;;;;;;;;;;5145438;27;20270;-68
2022/09/03 02:13:30;;;;;;;1.98;1.27;;;;;;;;;;5145376;27;20232;-68
2022/09/03 02:15:58;;;;;;;1.38;1.27;;;;;;;;;;5145527;27;20494;-68
2022/09/03 02:18:26;;;;;;;2.03;1.13;;;;;;;;;;5145333;27;20194;-68
2022/09/03 02:20:54;;;;;;;1.63;1.23;;;;;;;;;;5145069;27;20201;-68
2022/09/03 02:23:20;;;;;;;1.65;1.40;;;;;;;;;;5145085;27;20201;-68
2022/09/03 02:25:48;;;;;;;2.13;1.50;;;;;;;;;;5145353;27;20236;-68
2022/09/03 02:28:14;;;;;;;1.48;1.15;;;;;;;;;;5145247;27;20203;-68
2022/09/03 02:30:41;;;;;;;1.27;1.27;;;;;;;;;;5144815;27;20198;-68
2022/09/03 02:33:08;;;;;;;1.20;1.05;;;;;;;;;;5145083;27;20194;-68
2022/09/03 02:35:35;;;;;;;2.50;1.30;;;;;;;;;;5144983;27;20490;-68
2022/09/03 02:38:09;;;;;;;1.63;1.52;;;;;;;;;;5145151;27;20198;-68
2022/09/03 02:40:35;;;;;;;1.15;1.08;;;;;;;;;;5145028;27;20520;-68
2022/09/03 02:43:03;;;;;;;1.52;1.42;;;;;;;;;;5145120;27;20243;-68
2022/09/03 02:45:30;;;;;;;2.30;1.30;;;;;;;;;;5144767;27;20210;-68
2022/09/03 02:47:58;;;;;;;1.00;1.00;;;;;;;;;;5144688;27;20265;-68
2022/09/03 02:50:26;;;;;;;1.40;1.30;;;;;;;;;;5144597;27;20198;-68
2022/09/03 02:52:53;;;;;;;3.90;1.40;;;;;;;;;;5144819;27;20202;-68
2022/09/03 02:55:19;;;;;;;1.10;1.10;;;;;;;;;;5144752;27;20197;-68
2022/09/03 02:57:46;;;;;;;1.20;1.00;;;;;;;;;;5144600;27;20502;-68
2022/09/03 03:00:13;;;;;;;2.25;1.10;;;;;;;;;;5144273;27;20505;-68
2022/09/03 03:02:40;;;;;;;3.83;1.60;;;;;;;;;;5144464;27;20194;-68
2022/09/03 03:05:08;;;;;;;1.35;1.13;;;;;;;;;;5144508;27;20222;-68
2022/09/03 03:07:37;;;;;;;4.13;1.42;;;;;;;;;;5144147;27;20270;-68
2022/09/03 03:10:04;;;;;;;1.73;1.30;;;;;;;;;;5144109;27;20394;-68
2022/09/03 03:12:30;;;;;;;2.05;1.35;;;;;;;;;;5144377;27;20194;-68
2022/09/03 03:14:56;;;;;;;2.13;1.20;;;;;;;;;;5144313;27;20190;-68
2022/09/03 03:17:22;;;;;;;1.15;1.13;;;;;;;;;;5144073;27;20195;-68
2022/09/03 03:19:49;;;;;;;1.35;1.20;;;;;;;;;;5144201;27;20194;-68
2022/09/03 03:22:15;;;;;;;1.10;1.10;;;;;;;;;;5144186;27;20231;-68
2022/09/03 03:24:42;;;;;;;1.35;1.00;;;;;;;;;;5144020;27;20198;-68
2022/09/03 03:27:10;;;;;;;1.50;1.40;;;;;;;;;;5144081;27;20240;-68
2022/09/03 03:29:36;;;;;;;1.48;1.27;;;;;;;;;;5143713;27;20194;-68
2022/09/03 03:32:02;;;;;;;1.85;1.20;;;;;;;;;;5143916;27;20408;-68
2022/09/03 03:34:29;;;;;;;2.55;1.40;;;;;;;;;;5144118;27;20248;-68
2022/09/03 03:36:55;;;;;;;2.05;1.23;;;;;;;;;;5144021;27;20419;-68
2022/09/03 03:39:21;;;;;;;1.75;1.40;;;;;;;;;;5143652;27;20366;-68
2022/09/03 03:41:51;;;;;;;1.45;1.35;;;;;;;;;;5143429;27;20411;-68
2022/09/03 03:44:19;;;;;;;10.10;2.10;;;;;;;;;;5143742;27;20536;-68
2022/09/03 03:46:45;;;;;;;4.68;1.60;;;;;;;;;;5143513;27;20249;-68
2022/09/03 03:49:11;;;;;;;1.70;1.60;;;;;;;;;;5143552;27;20208;-68
2022/09/03 03:51:39;;;;;;;1.30;1.20;;;;;;;;;;5143803;27;20194;-68
2022/09/03 03:54:06;;;;;;;1.45;1.23;;;;;;;;;;5143707;27;20201;-68
2022/09/03 03:56:33;;;;;;;2.00;1.42;;;;;;;;;;5143578;27;20191;-68
2022/09/03 03:59:00;;;;;;;1.30;1.30;;;;;;;;;;5143228;27;20427;-68
2022/09/03 04:01:27;;;;;;;1.77;1.67;;;;;;;;;;5143620;27;20455;-68
2022/09/03 04:03:55;;;;;;;3.15;1.60;;;;;;;;;;5143551;27;20201;-68
2022/09/03 04:06:21;;;;;;;1.25;1.17;;;;;;;;;;5143174;27;20218;-68
2022/09/03 04:08:48;;;;;;;1.48;1.40;;;;;;;;;;5143496;27;20217;-68
2022/09/03 04:11:15;;;;;;;2.15;1.40;;;;;;;;;;5143160;27;20208;-68
2022/09/03 04:13:42;;;;;;;1.55;1.45;;;;;;;;;;5143215;27;20257;-68
2022/09/03 04:16:11;;;;;;;1.50;1.35;;;;;;;;;;5143461;27;20198;-68
2022/09/03 04:18:38;;;;;;;3.08;1.50;;;;;;;;;;5143406;27;20474;-68
2022/09/03 04:21:06;;;;;;;1.27;1.17;;;;;;;;;;5142917;27;20243;-67
2022/09/03 04:23:33;;;;;;;1.38;1.27;;;;;;;;;;5143322;27;20194;-67
2022/09/03 04:25:59;;;;;;;0.95;0.95;;;;;;;;;;5143117;27;20218;-67
2022/09/03 04:28:25;;;;;;;1.65;1.40;;;;;;;;;;5143121;27;20199;-67
2022/09/03 04:30:52;;;;;;;1.13;1.05;;;;;;;;;;5143231;27;20194;-67
2022/09/03 04:33:19;;;;;;;2.58;1.35;;;;;;;;;;5143228;27;20231;-67
2022/09/03 04:35:46;;;;;;;1.15;1.15;;;;;;;;;;5143197;27;20191;-67
2022/09/03 04:38:12;;;;;;;1.48;1.30;;;;;;;;;;5143197;27;20199;-67
2022/09/03 04:40:38;;;;;;;1.17;1.10;;;;;;;;;;5142741;27;20194;-67
2022/09/03 04:43:05;;;;;;;1.08;1.00;;;;;;;;;;5143084;27;20199;-67
2022/09/03 04:45:31;;;;;;;3.30;1.40;;;;;;;;;;5143169;27;20217;-67
2022/09/03 04:47:58;;;;;;;1.45;1.23;;;;;;;;;;5143092;27;20197;-67
2022/09/03 04:50:27;;;;;;;1.40;1.30;;;;;;;;;;5142735;27;20194;-67
2022/09/03 04:52:57;;;;;;;1.73;1.20;;;;;;;;;;5143130;27;20205;-67
2022/09/03 04:55:23;;;;;;;2.03;1.45;;;;;;;;;;5147252;27;20486;-67
2022/09/03 04:57:49;;;;;;;2.25;1.30;;;;;;;;;;5147066;27;20506;-67
2022/09/03 05:00:17;;;;;;;1.48;1.38;;;;;;;;;;5146872;27;20225;-67
2022/09/03 05:02:45;;;;;;;1.20;1.20;;;;;;;;;;5146937;27;20194;-67
2022/09/03 05:05:11;;;;;;;1.17;1.10;;;;;;;;;;5146535;27;20250;-67
2022/09/03 05:07:40;;;;;;;1.63;1.40;;;;;;;;;;5146626;27;20232;-67
2022/09/03 05:10:07;;;;;;;2.22;1.50;;;;;;;;;;5146608;27;20239;-67
2022/09/03 05:12:33;;;;;;;1.30;1.30;;;;;;;;;;5146788;27;20387;-67
2022/09/03 05:14:59;;;;;;;1.80;1.70;;;;;;;;;;5146894;27;20261;-67
2022/09/03 05:17:26;;;;;;;1.98;1.33;;;;;;;;;;5146680;27;20380;-67
2022/09/03 05:19:52;;;;;;;1.65;1.63;;;;;;;;;;5146314;27;20194;-67
2022/09/03 05:22:20;;;;;;;1.40;1.40;;;;;;;;;;5146370;27;20198;-67
2022/09/03 05:24:48;;;;;;;1.35;1.35;;;;;;;;;;5146688;27;20407;-67
2022/09/03 05:27:15;;;;;;;1.52;1.50;;;;;;;;;;5146458;27;20227;-67
2022/09/03 05:29:41;;;;;;;3.53;1.70;;;;;;;;;;5146163;27;20554;-67
2022/09/03 05:32:08;;;;;;;3.08;1.83;;;;;;;;;;5146448;27;20427;-67
2022/09/03 05:34:34;;;;;;;1.90;1.30;;;;;;;;;;5146340;27;20448;-67
2022/09/03 05:37:00;;;;;;;3.05;1.50;;;;;;;;;;5146025;27;20190;-67
2022/09/03 05:39:26;;;;;;;3.10;1.70;;;;;;;;;;5146273;27;20195;-68
2022/09/03 05:41:54;;;;;;;3.22;1.70;;;;;;;;;;5146204;27;20202;-68
2022/09/03 05:44:21;;;;;;;2.80;1.42;;;;;;;;;;5146103;27;20201;-66
2022/09/03 05:46:49;;;;;;;2.58;2.22;;;;;;;;;;5145892;27;20218;-68
2022/09/03 05:49:15;;;;;;;2.58;1.70;;;;;;;;;;5145594;27;20501;-68
2022/09/03 05:51:42;;;;;;;1.52;1.38;;;;;;;;;;5145845;27;20194;-68
2022/09/03 05:54:09;;;;;;;1.17;1.17;;;;;;;;;;5146030;27;20194;-66
2022/09/03 05:56:36;;;;;;;1.50;1.50;;;;;;;;;;5146036;27;20191;-65
2022/09/03 05:59:06;;;;;;;1.67;1.30;;;;;;;;;;5145603;27;20411;-65
2022/09/03 06:01:33;;;;;;;1.50;1.40;;;;;;;;;;5145762;27;20202;-65
2022/09/03 06:04:00;;;;;;;3.20;1.38;;;;;;;;;;5145226;27;20353;-68
2022/09/03 06:06:27;;;;;;;3.30;1.65;;;;;;;;;;5145483;27;20221;-68
2022/09/03 06:08:54;;;;;;;2.05;1.70;;;;;;;;;;5145389;27;20401;-68
2022/09/03 06:11:21;;;;;;;1.85;1.55;;;;;;;;;;5145352;27;20202;-68
2022/09/03 06:13:48;;;;;;;4.90;2.10;;;;;;;;;;5145531;27;20201;-66
2022/09/03 06:16:15;;;;;;;1.95;1.63;;;;;;;;;;5145388;27;20197;-65
2022/09/03 06:18:41;;;;;;;5.70;1.50;;;;;;;;;;5145221;27;20280;-66
2022/09/03 06:21:08;;;;;;;73.53;12.82;;;;;;;;;;5145061;27;20513;-67
2022/09/03 06:23:35;;;;;;;3.63;1.65;;;;;;;;;;5145252;27;20190;-69
2022/09/03 06:26:02;;;;;;;3.00;1.75;;;;;;;;;;5145212;27;20427;-69
2022/09/03 06:28:28;;;;;;;2.35;1.92;;;;;;;;;;5145234;27;20404;-69
2022/09/03 06:30:57;;;;;;;1.45;1.45;;;;;;;;;;5144855;27;20202;-69
2022/09/03 06:33:25;;;;;;;1.42;1.35;;;;;;;;;;5144963;27;20254;-67
2022/09/03 06:35:52;;;;;;;3.28;1.67;;;;;;;;;;5145139;27;20371;-67
2022/09/03 06:38:20;;;;;;;2.97;1.75;;;;;;;;;;5145034;27;20195;-69
2022/09/03 06:40:51;;;;;;;2.33;1.80;;;;;;;;;;5144711;27;20217;-69
2022/09/03 06:43:17;;;;;;;3.10;1.80;;;;;;;;;;5144805;27;20201;-69
2022/09/03 06:45:44;;;;;;;3.08;1.83;;;;;;;;;;5144534;27;20239;-67
2022/09/03 06:48:10;;;;;;;1.60;1.50;;;;;;;;;;5144552;27;20194;-67
2022/09/03 06:50:37;;;;;;;2.45;1.55;;;;;;;;;;5144755;27;20205;-67
2022/09/03 06:53:04;;;;;;;3.33;1.60;;;;;;;;;;5144684;27;20194;-69
2022/09/03 06:55:31;;;;;;;2.05;1.90;;;;;;;;;;5144613;27;20225;-67
2022/09/03 06:57:57;;;;;;;2.58;1.58;;;;;;;;;;5144545;27;20202;-67
2022/09/03 07:00:23;;;;;;;2.50;1.50;;;;;;;;;;5144034;27;20198;-67
2022/09/03 07:02:57;;;;;;;6.03;1.90;;;;;;;;;;5144374;27;20194;-67
2022/09/03 07:05:25;;;;;;;3.47;1.75;;;;;;;;;;5144476;27;20227;-67
2022/09/03 07:07:52;;;;;;;3.15;1.98;;;;;;;;;;5144338;27;20591;-67
2022/09/03 07:10:20;;;;;;;4.90;1.52;;;;;;;;;;5144007;27;20209;-67
2022/09/03 07:12:46;;;;;;;2.25;1.48;;;;;;;;;;5144133;27;20520;-67
2022/09/03 07:15:13;;;;;;;3.45;1.63;;;;;;;;;;5144287;27;20201;-67
2022/09/03 07:17:39;;;;;;;1.63;1.55;;;;;;;;;;5143648;27;20198;-67
2022/09/03 07:20:06;;;;;;;2.05;1.42;;;;;;;;;;5144061;27;20307;-66
2022/09/03 07:22:32;;;;;;;1.60;1.50;;;;;;;;;;5144289;27;20255;-66
2022/09/03 07:25:00;;;;;;;2.35;1.33;;;;;;;;;;5144552;27;20362;-67
2022/09/03 07:27:27;;;;;;;3.35;1.50;;;;;;;;;;5143902;27;20233;-69
2022/09/03 07:29:53;;;;;;;2.28;1.60;;;;;;;;;;5143950;27;20198;-69
2022/09/03 07:32:19;;;;;;;3.22;1.58;;;;;;;;;;5143980;27;20194;-69
2022/09/03 07:34:45;;;;;;;2.92;1.45;;;;;;;;;;5143884;27;20421;-68
2022/09/03 07:37:11;;;;;;;2.78;1.80;;;;;;;;;;5143861;27;20376;-68
2022/09/03 07:39:40;;;;;;;2.35;2.15;;;;;;;;;;5143437;27;20433;-68
2022/09/03 07:42:09;;;;;;;7.38;4.35;;;;;;;;;;5143898;27;20194;-69
2022/09/03 07:44:36;;;;;;;4.88;2.08;;;;;;;;;;5143887;27;20262;-67
2022/09/03 07:47:02;;;;;;;3.55;2.95;;;;;;;;;;5143605;27;20565;-67
2022/09/03 07:49:28;;;;;;;2.28;1.70;;;;;;;;;;5143496;27;20375;-67
2022/09/03 07:51:54;;;;;;;2.17;2.00;;;;;;;;;;5143680;27;20418;-67
2022/09/03 07:54:22;;;;;;;5.22;1.67;;;;;;;;;;5143502;27;20393;-67
2022/09/03 07:56:48;;;;;;;3.15;1.80;;;;;;;;;;5143322;27;20236;-67
2022/09/03 07:59:16;;;;;;;1.60;1.60;;;;;;;;;;5143489;27;20194;-67
2022/09/03 08:01:42;;;;;;;4.00;1.80;;;;;;;;;;5143373;27;20201;-67
2022/09/03 08:04:09;;;;;;;2.80;1.90;;;;;;;;;;5143485;27;20420;-67
2022/09/03 08:06:35;;;;;;;9.63;2.33;;;;;;;;;;5143072;27;20226;-67
2022/09/03 08:09:02;;;;;;;2.00;1.90;;;;;;;;;;5142985;27;20525;-69
2022/09/03 08:11:30;;;;;;;3.53;1.92;;;;;;;;;;5143359;27;20506;-69
2022/09/03 08:14:00;;;;;;;1.90;1.80;;;;;;;;;;5143367;27;20194;-69
2022/09/03 08:16:28;;;;;;;2.00;1.58;;;;;;;;;;5143345;27;20198;-67
2022/09/03 08:18:55;;;;;;;1.95;1.85;;;;;;;;;;5143203;27;20416;-68
2022/09/03 08:21:22;;;;;;;2.65;2.28;;;;;;;;;;5143195;27;20247;-68
2022/09/03 08:23:49;;;;;;;2.70;1.90;;;;;;;;;;5143254;27;20201;-68
2022/09/03 08:26:16;;;;;;;2.25;1.85;;;;;;;;;;5143227;27;20209;-68
2022/09/03 08:28:42;;;;;;;3.90;1.90;;;;;;;;;;5146695;27;20198;-68
2022/09/03 08:31:10;;;;;;;2.58;1.83;;;;;;;;;;5147286;27;20523;-69
2022/09/03 08:33:37;;;;;;;4.28;1.98;;;;;;;;;;5147475;27;20195;-68
2022/09/03 08:36:04;;;;;;;5.13;1.92;;;;;;;;;;5147272;27;20194;-69
2022/09/03 08:38:31;;;;;;;3.13;1.90;;;;;;;;;;5147505;27;20195;-69
2022/09/03 08:41:03;;;;;;;6.43;2.08;;;;;;;;;;5147241;27;20378;-69
2022/09/03 08:43:29;;;;;;;2.30;1.90;;;;;;;;;;5147331;27;20198;-69
2022/09/03 08:45:58;;;;;;;1.70;1.60;;;;;;;;;;5147089;27;20198;-69
2022/09/03 08:48:25;;;;;;;1.80;1.70;;;;;;;;;;5146795;27;20214;-69
2022/09/03 08:50:58;;;;;;;3.45;2.10;;;;;;;;;;5146828;27;20494;-68
2022/09/03 08:53:28;;;;;;;5.15;2.33;;;;;;;;;;5146999;27;20269;-68
2022/09/03 08:55:58;;;;;;;1.27;1.27;;;;;;;;;;5147168;27;20194;-68
2022/09/03 08:58:25;;;;;;;2.85;1.88;;;;;;;;;;5146881;27;20528;-68
2022/09/03 09:01:00;;;;;;;4.82;1.98;;;;;;;;;;5146717;27;20206;-69
2022/09/03 09:03:42;;;;;;;2.00;1.90;;;;;;;;;;5147117;27;20209;-68
2022/09/03 09:06:21;;;;;;;3.30;2.10;;;;;;;;;;5146795;27;20218;-68
2022/09/03 09:08:52;;;;;;;4.22;2.10;;;;;;;;;;5146657;27;20225;-68
2022/09/03 09:11:22;;;;;;;2.22;2.08;;;;;;;;;;5146556;27;20263;-68
2022/09/03 09:13:54;;;;;;;3.05;2.13;;;;;;;;;;5146825;27;20235;-68
2022/09/03 09:16:26;;;;;;;2.13;2.03;;;;;;;;;;5146708;27;20517;-68
2022/09/03 09:19:00;;;;;;;3.40;2.00;;;;;;;;;;5146463;27;20290;-68
2022/09/03 09:21:29;;;;;;;2.17;1.90;;;;;;;;;;5146499;27;20198;-68
2022/09/03 09:23:57;;;;;;;2.30;1.98;;;;;;;;;;5146328;27;20397;-68
2022/09/03 09:26:24;;;;;;;3.22;2.10;;;;;;;;;;5146569;27;20205;-69
2022/09/03 09:28:52;;;;;;;2.20;1.95;;;;;;;;;;5146238;27;20194;-68
2022/09/03 09:31:19;;;;;;;1.92;1.80;;;;;;;;;;5146359;27;20265;-68
2022/09/03 09:33:45;;;;;;;2.38;2.17;;;;;;;;;;5146190;27;20198;-68
2022/09/03 09:36:14;;;;;;;3.72;2.15;;;;;;;;;;5146243;27;20194;-68
2022/09/03 09:38:42;;;;;;;1.88;1.88;;;;;;;;;;5145483;27;20197;-68
2022/09/03 09:41:09;;;;;;;2.20;2.10;;;;;;;;;;5145974;27;20512;-68
2022/09/03 09:43:36;;;;;;;4.93;2.20;;;;;;;;;;5146172;27;20194;-68
2022/09/03 09:46:07;;;;;;;2.00;1.90;;;;;;;;;;5145945;27;20250;-67
2022/09/03 09:48:37;;;;;;;3.80;2.22;;;;;;;;;;5145996;27;20222;-68
2022/09/03 09:51:05;;;;;;;2.53;1.88;;;;;;;;;;5145960;27;20197;-68
2022/09/03 09:53:31;;;;;;;2.38;2.20;;;;;;;;;;5145957;27;20197;-68
2022/09/03 09:56:00;;;;;;;2.10;2.00;;;;;;;;;;5145671;27;20439;-68
2022/09/03 09:58:29;;;;;;;1.75;1.67;;;;;;;;;;5145847;27;20190;-68
2022/09/03 10:00:57;;;;;;;2.67;2.20;;;;;;;;;;5145486;27;20245;-68
2022/09/03 10:03:23;;;;;;;3.50;2.08;;;;;;;;;;5145631;27;20269;-68
2022/09/03 10:05:58;;;;;;;2.05;2.05;;;;;;;;;;5145552;27;20222;-70
2022/09/03 10:08:24;;;;;;;3.38;3.17;;;;;;;;;;5145445;27;20442;-68
2022/09/03 10:10:51;;;;;;;1.90;1.80;;;;;;;;;;5145281;27;20546;-67
2022/09/03 10:13:21;;;;;;;2.35;2.22;;;;;;;;;;5145582;27;20194;-68
2022/09/03 10:15:50;;;;;;;2.55;2.35;;;;;;;;;;5145551;27;20198;-68
2022/09/03 10:18:26;;;;;;;2.13;2.03;;;;;;;;;;5145284;27;20367;-68
2022/09/03 10:20:58;;;;;;;2.15;2.00;;;;;;;;;;5145295;27;20197;-67
2022/09/03 10:23:26;;;;;;;2.30;2.20;;;;;;;;;;5145402;27;20201;-67
2022/09/03 10:25:56;;;;;;;3.30;2.35;;;;;;;;;;5145335;27;20402;-67
2022/09/03 10:28:26;;;;;;;2.22;2.08;;;;;;;;;;5145379;27;20225;-67
2022/09/03 10:31:00;;;;;;;3.72;2.00;;;;;;;;;;5144942;27;20427;-67
2022/09/03 10:33:31;;;;;;;3.08;2.30;;;;;;;;;;5145134;27;20247;-67
2022/09/03 10:36:03;;;;;;;3.55;2.20;;;;;;;;;;5145048;27;20194;-67
2022/09/03 10:38:32;;;;;;;2.45;2.33;;;;;;;;;;5145043;27;20190;-67
2022/09/03 10:41:03;;;;;;;2.42;2.22;;;;;;;;;;5144813;27;20194;-67
2022/09/03 10:43:49;;;;;;;2.53;2.33;;;;;;;;;;5145051;27;20385;-68
2022/09/03 10:46:19;;;;;;;5.18;2.10;;;;;;;;;;5134883;27;20193;-68
2022/09/03 10:48:52;;;;;;;5.55;2.05;;;;;;;;;;5144843;27;20226;-68
2022/09/03 10:51:20;;;;;;;2.42;2.20;;;;;;;;;;5143650;27;20419;-68
2022/09/03 10:53:54;;;;;;;4.40;3.50;;;;;;;;;;5144990;27;20202;-69
2022/09/03 10:56:22;;;;;;;2.65;2.08;;;;;;;;;;5145031;27;20200;-68
2022/09/03 10:58:54;;;;;;;3.95;1.90;;;;;;;;;;5144920;27;20193;-68
2022/09/03 11:01:27;;;;;;;2.28;2.08;;;;;;;;;;5144576;27;20201;-68
2022/09/03 11:04:00;;;;;;;3.80;2.20;;;;;;;;;;5144473;27;20197;-68
2022/09/03 11:06:28;;;;;;;2.60;2.17;;;;;;;;;;5144553;27;20224;-68
2022/09/03 11:08:58;;;;;;;2.13;2.03;;;;;;;;;;5144263;27;20536;-68
2022/09/03 11:11:27;;;;;;;3.05;2.20;;;;;;;;;;5144141;27;20210;-68
2022/09/03 11:13:56;;;;;;;2.03;1.92;;;;;;;;;;5144195;27;20239;-68
2022/09/03 11:16:25;;;;;;;2.35;2.22;;;;;;;;;;5144179;27;20190;-68
2022/09/03 11:18:53;;;;;;;7.35;4.47;;;;;;;;;;5144014;27;20364;-68
2022/09/03 11:21:21;;;;;;;4.40;3.90;;;;;;;;;;5144141;27;20240;-68
2022/09/03 11:23:51;;;;;;;4.07;2.20;;;;;;;;;;5143828;27;20193;-68
2022/09/03 11:26:19;;;;;;;2.40;2.20;;;;;;;;;;5144166;27;20208;-68
2022/09/03 11:28:51;;;;;;;2.38;2.28;;;;;;;;;;5143718;27;20217;-68
2022/09/03 11:31:23;;;;;;;2.50;2.40;;;;;;;;;;5143924;27;20478;-68
2022/09/03 11:33:53;;;;;;;2.10;2.10;;;;;;;;;;5143684;27;20590;-68
2022/09/03 11:36:25;;;;;;;2.40;2.20;;;;;;;;;;5143944;27;20415;-68
2022/09/03 11:38:51;;;;;;;2.35;2.35;;;;;;;;;;5143310;27;20220;-69
2022/09/03 11:41:25;;;;;;;2.75;2.50;;;;;;;;;;5144027;27;20208;-69
2022/09/03 11:43:52;;;;;;;2.03;1.92;;;;;;;;;;5143398;27;20229;-69
2022/09/03 11:46:28;;;;;;;2.25;2.15;;;;;;;;;;5143454;27;20387;-69
2022/09/03 11:48:56;;;;;;;2.30;2.20;;;;;;;;;;5143339;27;20440;-69
2022/09/03 11:51:31;;;;;;;2.47;2.33;;;;;;;;;;5143533;27;20230;-69
2022/09/03 11:53:58;;;;;;;2.40;2.20;;;;;;;;;;5143289;27;20193;-69
2022/09/03 11:56:24;;;;;;;2.30;2.20;;;;;;;;;;5143665;27;20202;-69
2022/09/03 11:59:01;;;;;;;4.13;2.60;;;;;;;;;;5143536;27;20235;-69
2022/09/03 12:01:28;;;;;;;3.90;2.50;;;;;;;;;;5143613;27;20505;-69
2022/09/03 12:03:58;;;;;;;3.50;2.17;;;;;;;;;;5143155;27;20194;-69
2022/09/03 12:06:33;;;;;;;2.45;2.30;;;;;;;;;;5143213;27;20259;-68
2022/09/03 12:09:12;;;;;;;2.70;2.50;;;;;;;;;;5143301;27;20213;-68
2022/09/03 12:11:49;;;;;;;8.13;2.78;;;;;;;;;;5143290;27;20221;-68
2022/09/03 12:14:20;;;;;;;2.45;2.25;;;;;;;;;;5143297;27;20213;-68
2022/09/03 12:16:59;;;;;;;3.42;2.45;;;;;;;;;;5143131;27;20202;-69
2022/09/03 12:19:32;;;;;;;2.75;2.55;;;;;;;;;;5143249;27;20261;-69
2022/09/03 12:22:02;;;;;;;4.60;3.08;;;;;;;;;;5143578;27;20198;-68
2022/09/03 12:24:34;;;;;;;5.05;3.40;;;;;;;;;;5143287;27;20389;-68
2022/09/03 12:27:00;;;;;;;5.32;3.20;;;;;;;;;;5143356;27;20202;-68
2022/09/03 12:29:28;;;;;;;1.75;1.48;;;;;;;;;;5143340;27;20435;-68
2022/09/03 12:31:55;;;;;;;1.95;1.10;;;;;;;;;;5143597;27;20425;-68
2022/09/03 12:34:22;;;;;;;1.20;1.10;;;;;;;;;;5143204;27;20194;-68
2022/09/03 12:36:50;;;;;;;2.05;0.90;;;;;;;;;;5143041;27;20194;-68
2022/09/03 12:39:18;;;;;;;2.92;1.13;;;;;;;;;;5142893;27;20190;-68
2022/09/03 12:41:54;;;;;;;1.95;1.73;;;;;;;;;;5143010;27;20217;-68
2022/09/03 12:44:25;;;;;;;2.47;1.10;;;;;;;;;;5143246;27;20241;-68
2022/09/03 12:47:00;;;;;;;2.90;1.52;;;;;;;;;;5143088;27;20389;-68
2022/09/03 12:49:26;;;;;;;5.50;1.20;;;;;;;;;;5142948;27;20217;-68
2022/09/03 12:51:58;;;;;;;3.05;1.20;;;;;;;;;;5142898;27;20533;-69
2022/09/03 12:54:25;;;;;;;3.58;1.30;;;;;;;;;;5142682;27;20494;-69
2022/09/03 12:56:54;;;;;;;4.43;1.20;;;;;;;;;;5143152;27;20194;-69
2022/09/03 12:59:21;;;;;;;2.97;1.40;;;;;;;;;;5142653;27;20198;-69
2022/09/03 13:01:48;;;;;;;1.42;1.30;;;;;;;;;;5142799;27;20194;-69
2022/09/03 13:04:17;;;;;;;1.95;1.30;;;;;;;;;;5142605;27;20226;-69
2022/09/03 13:06:48;;;;;;;2.10;1.27;;;;;;;;;;5142554;27;20240;-69
2022/09/03 13:09:19;;;;;;;1.42;1.10;;;;;;;;;;5142240;27;20226;-69
2022/09/03 13:11:45;;;;;;;2.15;1.27;;;;;;;;;;5142585;27;20372;-69
2022/09/03 13:14:12;;;;;;;1.27;1.05;;;;;;;;;;5143177;27;20493;-69
2022/09/03 13:16:53;;;;;;;3.50;1.38;;;;;;;;;;5146178;27;20201;-69
2022/09/03 13:19:24;;;;;;;4.15;1.30;;;;;;;;;;5143137;27;20201;-69
2022/09/03 13:21:56;;;;;;;4.82;1.35;;;;;;;;;;5145975;27;20246;-69
2022/09/03 13:27:22;;;;;;;2.78;1.27;;;;;;;;;;5099749;27;20556;-69
2022/09/03 13:29:54;;;;;;;2.67;1.33;;;;;;;;;;5099030;28;20199;-69
2022/09/03 13:32:25;;;;;;;6.00;1.30;;;;;;;;;;5099374;28;20192;-69
2022/09/03 13:34:54;;;;;;;1.90;1.67;;;;;;;;;;5099412;28;20504;-69
2022/09/03 13:37:24;;;;;;;1.98;1.38;;;;;;;;;;5099126;28;20233;-69
2022/09/03 13:39:53;;;;;;;1.15;1.15;;;;;;;;;;5099000;28;20195;-69
2022/09/03 13:42:25;;;;;;;2.92;1.40;;;;;;;;;;5099573;28;20541;-69
2022/09/03 13:44:55;;;;;;;2.33;1.55;;;;;;;;;;5099136;28;20199;-69
2022/09/03 13:47:25;;;;;;;3.90;1.55;;;;;;;;;;5099117;28;20199;-69
2022/09/03 13:52:41;;;;;;;2.63;2.05;;;;;;;;;;5098862;28;20227;-69
2022/09/03 13:55:10;;;;;;;1.80;1.25;;;;;;;;;;5099052;28;20274;-69
2022/09/03 13:57:40;;;;;;;5.65;1.88;;;;;;;;;;5099092;28;20496;-69
2022/09/03 14:00:09;;;;;;;2.90;2.05;;;;;;;;;;5098814;28;20196;-69
2022/09/03 14:02:45;;;;;;;5.95;1.80;;;;;;;;;;5099043;28;20521;-69
2022/09/03 14:05:14;;;;;;;3.88;1.50;;;;;;;;;;5098758;28;20227;-69
2022/09/03 14:07:44;;;;;;;5.97;2.00;;;;;;;;;;5099076;28;20499;-69
2022/09/03 14:10:18;;;;;;;2.53;1.35;;;;;;;;;;5098710;28;20196;-69
2022/09/03 14:12:49;;;;;;;1.40;1.30;;;;;;;;;;5098629;28;20492;-69
2022/09/03 14:15:18;;;;;;;1.38;1.08;;;;;;;;;;5098635;28;20207;-69
2022/09/03 14:17:46;;;;;;;5.63;1.27;;;;;;;;;;5098555;28;20202;-69
2022/09/03 14:20:18;;;;;;;1.80;1.20;;;;;;;;;;5098481;28;20208;-69
2022/09/03 14:22:49;;;;;;;2.95;1.10;;;;;;;;;;5098582;28;20388;-69
2022/09/03 14:25:17;;;;;;;4.55;2.00;;;;;;;;;;5098220;28;20208;-69
2022/09/03 14:27:43;;;;;;;1.75;1.13;;;;;;;;;;5098262;28;20203;-69
2022/09/03 14:30:19;;;;;;;1.95;1.27;;;;;;;;;;5098057;28;20313;-69
2022/09/03 14:32:50;;;;;;;0.80;0.80;;;;;;;;;;5098143;28;20199;-69
2022/09/03 14:35:32;;;;;;;1.42;1.10;;;;;;;;;;5098303;28;20488;-69
2022/09/03 14:38:15;;;;;;;1.75;1.08;;;;;;;;;;5088100;28;20257;-69
2022/09/03 14:40:42;;;;;;;1.33;1.05;;;;;;;;;;5084200;28;20196;-69
2022/09/03 14:43:18;;;;;;;0.75;0.75;;;;;;;;;;5084844;28;20234;-69
2022/09/03 14:45:52;;;;;;;0.60;0.60;;;;;;;;;;5084275;28;20223;-69
2022/09/03 14:48:29;;;;;;;1.42;0.50;;;;;;;;;;5084424;28;20199;-69
2022/09/03 14:51:01;;;;;;;0.75;0.75;;;;;;;;;;5084100;28;20203;-69
2022/09/03 14:53:37;;;;;;;0.63;0.63;;;;;;;;;;5084559;28;20196;-70
2022/09/03 14:56:08;;;;;;;3.72;0.60;;;;;;;;;;5084223;28;20223;-69
2022/09/03 14:58:52;;;;;;;0.60;0.60;;;;;;;;;;5084239;28;20196;-69
2022/09/03 15:01:22;;;;;;;0.50;0.50;;;;;;;;;;5084098;28;20195;-70